sensor_id;sensor_type;location;lat;lon;timestamp;pressure;altitude;pressure_sealevel;temperature;humidity
36502;BME280;25393;46.108;3.390;2023-02-03T00:01:05;99715.56;;;6.11;77.32
36502;BME280;25393;46.108;3.390;2023-02-03T00:03:32;99707.97;;;6.06;78.43
36502;BME280;25393;46.108;3.390;2023-02-03T00:06:00;99709.66;;;6.07;79.13
36502;BME280;25393;46.108;3.390;2023-02-03T00:08:27;99705.44;;;6.05;80.23
36502;BME280;25393;46.108;3.390;2023-02-03T00:10:53;99704.41;;;6.07;79.71
36502;BME280;25393;46.108;3.390;2023-02-03T00:13:20;99698.56;;;6.02;79.44
36502;BME280;25393;46.108;3.390;2023-02-03T00:15:47;99711.22;;;6.10;80.99
36502;BME280;25393;46.108;3.390;2023-02-03T00:18:13;99699.34;;;6.04;80.67
36502;BME280;25393;46.108;3.390;2023-02-03T00:20:39;99693.63;;;5.97;81.63
36502;BME280;25393;46.108;3.390;2023-02-03T00:23:10;99696.56;;;5.93;83.34
36502;BME280;25393;46.108;3.390;2023-02-03T00:25:40;99705.66;;;6.01;83.00
36502;BME280;25393;46.108;3.390;2023-02-03T00:28:09;99696.25;;;5.97;82.94
36502;BME280;25393;46.108;3.390;2023-02-03T00:30:36;99692.97;;;5.94;82.59
36502;BME280;25393;46.108;3.390;2023-02-03T00:33:04;99700.69;;;5.97;80.58
36502;BME280;25393;46.108;3.390;2023-02-03T00:35:31;99715.72;;;5.95;80.10
36502;BME280;25393;46.108;3.390;2023-02-03T00:37:58;99717.31;;;5.97;80.15
36502;BME280;25393;46.108;3.390;2023-02-03T00:40:25;99725.31;;;5.96;80.25
36502;BME280;25393;46.108;3.390;2023-02-03T00:42:52;99719.09;;;5.97;79.31
36502;BME280;25393;46.108;3.390;2023-02-03T00:45:20;99723.53;;;5.96;78.32
36502;BME280;25393;46.108;3.390;2023-02-03T00:47:47;99720.59;;;6.01;77.43
36502;BME280;25393;46.108;3.390;2023-02-03T00:50:13;99732.28;;;6.10;76.63
36502;BME280;25393;46.108;3.390;2023-02-03T00:52:40;99729.56;;;6.11;78.92
36502;BME280;25393;46.108;3.390;2023-02-03T00:55:07;99729.38;;;6.14;77.55
36502;BME280;25393;46.108;3.390;2023-02-03T00:57:34;99722.72;;;6.09;78.47
36502;BME280;25393;46.108;3.390;2023-02-03T01:00:00;99735.06;;;6.08;79.20
36502;BME280;25393;46.108;3.390;2023-02-03T01:02:27;99728.09;;;6.07;78.93
36502;BME280;25393;46.108;3.390;2023-02-03T01:04:53;99725.88;;;6.01;78.06
36502;BME280;25393;46.108;3.390;2023-02-03T01:07:20;99728.09;;;6.07;77.62
36502;BME280;25393;46.108;3.390;2023-02-03T01:09:47;99729.56;;;6.11;77.19
36502;BME280;25393;46.108;3.390;2023-02-03T01:12:13;99723.38;;;6.12;77.29
36502;BME280;25393;46.108;3.390;2023-02-03T01:14:42;99734.44;;;6.17;77.56
36502;BME280;25393;46.108;3.390;2023-02-03T01:17:08;99723.38;;;6.12;78.20
36502;BME280;25393;46.108;3.390;2023-02-03T01:19:37;99740.53;;;6.18;78.01
36502;BME280;25393;46.108;3.390;2023-02-03T01:22:03;99735.50;;;6.15;78.12
36502;BME280;25393;46.108;3.390;2023-02-03T01:24:30;99729.53;;;6.25;77.34
36502;BME280;25393;46.108;3.390;2023-02-03T01:26:56;99733.19;;;6.23;76.25
36502;BME280;25393;46.108;3.390;2023-02-03T01:29:23;99735.69;;;6.12;76.16
36502;BME280;25393;46.108;3.390;2023-02-03T01:31:50;99729.22;;;6.03;75.82
36502;BME280;25393;46.108;3.390;2023-02-03T01:34:16;99746.88;;;6.15;75.98
36502;BME280;25393;46.108;3.390;2023-02-03T01:36:44;99744.44;;;6.12;76.32
36502;BME280;25393;46.108;3.390;2023-02-03T01:39:12;99750.84;;;6.08;76.06
36502;BME280;25393;46.108;3.390;2023-02-03T01:41:39;99740.81;;;6.00;76.58
36502;BME280;25393;46.108;3.390;2023-02-03T01:47:25;99743.53;;;5.99;76.95
36502;BME280;25393;46.108;3.390;2023-02-03T01:52:35;99730.38;;;5.99;77.56
36502;BME280;25393;46.108;3.390;2023-02-03T01:55:07;99718.91;;;6.00;77.94
36502;BME280;25393;46.108;3.390;2023-02-03T01:57:53;99735.97;;;6.07;77.95
36502;BME280;25393;46.108;3.390;2023-02-03T02:00:21;99714.78;;;5.96;78.75
36502;BME280;25393;46.108;3.390;2023-02-03T02:02:48;99725.31;;;5.96;78.68
36502;BME280;25393;46.108;3.390;2023-02-03T02:05:20;99722.38;;;6.00;78.64
36502;BME280;25393;46.108;3.390;2023-02-03T02:07:48;99726.72;;;6.01;77.60
36502;BME280;25393;46.108;3.390;2023-02-03T02:10:15;99725.50;;;5.93;78.14
36502;BME280;25393;46.108;3.390;2023-02-03T02:12:41;99715.44;;;5.85;77.95
36502;BME280;25393;46.108;3.390;2023-02-03T02:15:11;99727.50;;;5.89;78.70
36502;BME280;25393;46.108;3.390;2023-02-03T02:17:58;99714.78;;;5.82;78.92
36502;BME280;25393;46.108;3.390;2023-02-03T02:20:37;99726.16;;;5.82;79.56
36502;BME280;25393;46.108;3.390;2023-02-03T02:23:14;99730.56;;;5.82;79.09
36502;BME280;25393;46.108;3.390;2023-02-03T02:29:02;99719.59;;;5.75;78.54
36502;BME280;25393;46.108;3.390;2023-02-03T02:34:34;99729.19;;;5.76;78.16
36502;BME280;25393;46.108;3.390;2023-02-03T02:45:15;99715.88;;;5.65;79.15
36502;BME280;25393;46.108;3.390;2023-02-03T02:47:43;99710.81;;;5.62;79.30
36502;BME280;25393;46.108;3.390;2023-02-03T02:50:20;99711.00;;;5.59;80.11
36502;BME280;25393;46.108;3.390;2023-02-03T02:52:50;99700.38;;;5.61;80.70
36502;BME280;25393;46.108;3.390;2023-02-03T02:55:22;99702.28;;;5.59;81.47
36502;BME280;25393;46.108;3.390;2023-02-03T02:57:55;99688.34;;;5.57;80.24
36502;BME280;25393;46.108;3.390;2023-02-03T03:00:23;99707.22;;;5.63;79.86
36502;BME280;25393;46.108;3.390;2023-02-03T03:02:50;99702.91;;;5.62;79.00
36502;BME280;25393;46.108;3.390;2023-02-03T03:05:19;99713.44;;;5.62;78.93
36502;BME280;25393;46.108;3.390;2023-02-03T03:07:50;99711.53;;;5.64;78.77
36502;BME280;25393;46.108;3.390;2023-02-03T03:10:21;99714.19;;;5.64;78.79
36502;BME280;25393;46.108;3.390;2023-02-03T03:12:58;99727.44;;;5.63;78.63
36502;BME280;25393;46.108;3.390;2023-02-03T03:15:29;99722.47;;;5.58;78.60
36502;BME280;25393;46.108;3.390;2023-02-03T03:20:26;99732.72;;;5.63;78.15
36502;BME280;25393;46.108;3.390;2023-02-03T03:23:01;99729.88;;;5.66;78.10
36502;BME280;25393;46.108;3.390;2023-02-03T03:25:34;99723.47;;;5.70;78.15
36502;BME280;25393;46.108;3.390;2023-02-03T03:28:08;99723.28;;;5.73;77.53
36502;BME280;25393;46.108;3.390;2023-02-03T03:30:38;99723.81;;;5.78;77.96
36502;BME280;25393;46.108;3.390;2023-02-03T03:33:05;99728.16;;;5.79;77.09
36502;BME280;25393;46.108;3.390;2023-02-03T03:35:44;99722.97;;;5.77;77.10
36502;BME280;25393;46.108;3.390;2023-02-03T03:38:29;99717.63;;;5.79;76.12
36502;BME280;25393;46.108;3.390;2023-02-03T03:41:19;99723.06;;;5.90;76.37
36502;BME280;25393;46.108;3.390;2023-02-03T03:43:51;99718.06;;;5.99;76.84
36502;BME280;25393;46.108;3.390;2023-02-03T03:46:27;99715.66;;;6.09;75.96
36502;BME280;25393;46.108;3.390;2023-02-03T03:49:02;99721.53;;;6.00;77.32
36502;BME280;25393;46.108;3.390;2023-02-03T03:51:39;99715.38;;;5.87;78.32
36502;BME280;25393;46.108;3.390;2023-02-03T03:54:08;99718.94;;;5.86;78.30
36502;BME280;25393;46.108;3.390;2023-02-03T03:56:49;99718.00;;;5.87;79.36
36502;BME280;25393;46.108;3.390;2023-02-03T03:59:22;99729.06;;;5.92;78.76
36502;BME280;25393;46.108;3.390;2023-02-03T04:01:50;99732.75;;;5.89;79.72
36502;BME280;25393;46.108;3.390;2023-02-03T04:04:18;99720.16;;;5.80;80.34
36502;BME280;25393;46.108;3.390;2023-02-03T04:06:46;99720.97;;;5.81;80.31
36502;BME280;25393;46.108;3.390;2023-02-03T04:09:12;99720.97;;;5.81;79.41
36502;BME280;25393;46.108;3.390;2023-02-03T04:11:39;99705.19;;;5.81;80.61
36502;BME280;25393;46.108;3.390;2023-02-03T04:14:24;99717.63;;;5.79;81.61
36502;BME280;25393;46.108;3.390;2023-02-03T04:16:50;99715.19;;;5.76;82.11
36502;BME280;25393;46.108;3.390;2023-02-03T04:19:17;99716.31;;;5.72;82.20
36502;BME280;25393;46.108;3.390;2023-02-03T04:21:43;99706.72;;;5.71;81.29
36502;BME280;25393;46.108;3.390;2023-02-03T04:24:10;99717.72;;;5.77;81.15
36502;BME280;25393;46.108;3.390;2023-02-03T04:26:37;99716.53;;;5.69;81.00
36502;BME280;25393;46.108;3.390;2023-02-03T04:29:04;99713.31;;;5.64;80.52
36502;BME280;25393;46.108;3.390;2023-02-03T04:31:31;99707.59;;;5.71;80.36
36502;BME280;25393;46.108;3.390;2023-02-03T04:33:57;99705.81;;;5.72;81.08
36502;BME280;25393;46.108;3.390;2023-02-03T04:36:24;99702.44;;;5.70;80.85
36502;BME280;25393;46.108;3.390;2023-02-03T04:38:53;99693.91;;;5.66;80.27
36502;BME280;25393;46.108;3.390;2023-02-03T04:41:20;99698.31;;;5.66;80.42
36502;BME280;25393;46.108;3.390;2023-02-03T04:43:48;99693.03;;;5.66;80.57
36502;BME280;25393;46.108;3.390;2023-02-03T04:46:15;99693.56;;;5.71;80.63
36502;BME280;25393;46.108;3.390;2023-02-03T04:48:41;99690.78;;;5.60;81.29
36502;BME280;25393;46.108;3.390;2023-02-03T04:51:08;99684.50;;;5.62;81.00
36502;BME280;25393;46.108;3.390;2023-02-03T04:53:35;99682.91;;;5.60;80.96
36502;BME280;25393;46.108;3.390;2023-02-03T04:56:02;99679.25;;;5.62;80.94
36502;BME280;25393;46.108;3.390;2023-02-03T04:58:28;99680.00;;;5.50;81.48
36502;BME280;25393;46.108;3.390;2023-02-03T05:00:55;99669.97;;;5.42;82.79
36502;BME280;25393;46.108;3.390;2023-02-03T05:03:21;99656.94;;;5.41;82.60
36502;BME280;25393;46.108;3.390;2023-02-03T05:05:51;99657.59;;;5.44;82.47
36502;BME280;25393;46.108;3.390;2023-02-03T05:08:18;99659.19;;;5.47;81.89
36502;BME280;25393;46.108;3.390;2023-02-03T05:10:45;99657.28;;;5.49;81.52
36502;BME280;25393;46.108;3.390;2023-02-03T05:13:11;99661.41;;;5.53;81.72
36502;BME280;25393;46.108;3.390;2023-02-03T05:15:38;99642.94;;;5.40;81.84
36502;BME280;25393;46.108;3.390;2023-02-03T05:18:04;99648.25;;;5.53;82.24
36502;BME280;25393;46.108;3.390;2023-02-03T05:20:31;99639.84;;;5.48;81.25
36502;BME280;25393;46.108;3.390;2023-02-03T05:22:57;99650.84;;;5.40;81.80
36502;BME280;25393;46.108;3.390;2023-02-03T05:25:27;99639.94;;;5.32;81.82
36502;BME280;25393;46.108;3.390;2023-02-03T05:27:56;99625.63;;;5.24;82.16
36502;BME280;25393;46.108;3.390;2023-02-03T05:30:23;99643.63;;;5.30;82.25
36502;BME280;25393;46.108;3.390;2023-02-03T05:32:49;99643.41;;;5.47;81.55
36502;BME280;25393;46.108;3.390;2023-02-03T05:35:16;99630.72;;;5.39;82.84
36502;BME280;25393;46.108;3.390;2023-02-03T05:37:43;99635.25;;;5.37;82.71
36502;BME280;25393;46.108;3.390;2023-02-03T05:40:14;99644.06;;;5.36;82.67
36502;BME280;25393;46.108;3.390;2023-02-03T05:42:59;99642.50;;;5.34;83.31
36502;BME280;25393;46.108;3.390;2023-02-03T05:45:26;99636.38;;;5.33;82.41
36502;BME280;25393;46.108;3.390;2023-02-03T05:47:52;99641.72;;;5.32;83.02
36502;BME280;25393;46.108;3.390;2023-02-03T05:50:18;99652.34;;;5.44;83.05
36502;BME280;25393;46.108;3.390;2023-02-03T05:52:45;99664.06;;;5.39;84.95
36502;BME280;25393;46.108;3.390;2023-02-03T05:55:11;99659.13;;;5.34;84.88
36502;BME280;25393;46.108;3.390;2023-02-03T05:57:38;99657.44;;;5.33;85.75
36502;BME280;25393;46.108;3.390;2023-02-03T06:00:05;99652.16;;;5.33;86.08
36502;BME280;25393;46.108;3.390;2023-02-03T06:02:32;99642.31;;;5.23;87.11
36502;BME280;25393;46.108;3.390;2023-02-03T06:04:59;99665.88;;;5.24;88.45
36502;BME280;25393;46.108;3.390;2023-02-03T06:07:25;99674.81;;;5.22;89.99
36502;BME280;25393;46.108;3.390;2023-02-03T06:09:54;99676.03;;;5.30;89.81
36502;BME280;25393;46.108;3.390;2023-02-03T06:12:23;99661.56;;;5.23;88.77
36502;BME280;25393;46.108;3.390;2023-02-03T06:14:52;99652.66;;;5.26;88.16
36502;BME280;25393;46.108;3.390;2023-02-03T06:17:18;99641.66;;;5.33;88.96
36502;BME280;25393;46.108;3.390;2023-02-03T06:19:45;99655.94;;;5.29;90.00
36502;BME280;25393;46.108;3.390;2023-02-03T06:22:11;99643.25;;;5.22;90.85
36502;BME280;25393;46.108;3.390;2023-02-03T06:24:38;99657.44;;;5.33;90.26
36502;BME280;25393;46.108;3.390;2023-02-03T06:27:04;99655.28;;;5.26;90.65
36502;BME280;25393;46.108;3.390;2023-02-03T06:29:30;99649.63;;;5.32;90.25
36502;BME280;25393;46.108;3.390;2023-02-03T06:31:57;99654.22;;;5.28;90.50
36502;BME280;25393;46.108;3.390;2023-02-03T06:34:23;99659.50;;;5.14;91.96
36502;BME280;25393;46.108;3.390;2023-02-03T06:36:50;99679.16;;;5.09;92.95
36502;BME280;25393;46.108;3.390;2023-02-03T06:39:16;99674.94;;;5.06;92.85
36502;BME280;25393;46.108;3.390;2023-02-03T06:41:43;99682.81;;;5.06;94.49
36502;BME280;25393;46.108;3.390;2023-02-03T06:44:09;99678.88;;;4.99;94.82
36502;BME280;25393;46.108;3.390;2023-02-03T06:46:36;99686.75;;;5.13;94.96
36502;BME280;25393;46.108;3.390;2023-02-03T06:49:02;99689.84;;;5.06;94.14
36502;BME280;25393;46.108;3.390;2023-02-03T06:51:29;99701.03;;;5.09;94.84
36502;BME280;25393;46.108;3.390;2023-02-03T06:53:59;99696.50;;;5.11;94.39
36502;BME280;25393;46.108;3.390;2023-02-03T06:56:25;99711.53;;;5.23;93.45
36502;BME280;25393;46.108;3.390;2023-02-03T06:58:55;99703.06;;;5.18;93.38
36502;BME280;25393;46.108;3.390;2023-02-03T07:01:23;99711.72;;;5.20;93.29
36502;BME280;25393;46.108;3.390;2023-02-03T07:03:54;99713.50;;;5.20;93.21
36502;BME280;25393;46.108;3.390;2023-02-03T07:06:24;99711.16;;;5.15;92.09
36502;BME280;25393;46.108;3.390;2023-02-03T07:08:56;99702.22;;;5.18;90.85
36502;BME280;25393;46.108;3.390;2023-02-03T07:11:26;99706.00;;;5.14;91.66
36502;BME280;25393;46.108;3.390;2023-02-03T07:13:53;99695.31;;;5.02;92.48
36502;BME280;25393;46.108;3.390;2023-02-03T07:16:19;99710.50;;;5.12;93.00
36502;BME280;25393;46.108;3.390;2023-02-03T07:18:46;99706.28;;;5.09;93.80
36502;BME280;25393;46.108;3.390;2023-02-03T07:21:14;99718.66;;;5.21;92.76
36502;BME280;25393;46.108;3.390;2023-02-03T07:23:41;99706.28;;;5.09;94.02
36502;BME280;25393;46.108;3.390;2023-02-03T07:26:09;99725.06;;;5.17;94.46
36502;BME280;25393;46.108;3.390;2023-02-03T07:28:36;99731.13;;;5.18;95.03
36502;BME280;25393;46.108;3.390;2023-02-03T07:31:03;99736.38;;;5.32;93.19
36502;BME280;25393;46.108;3.390;2023-02-03T07:33:36;99732.44;;;5.25;92.85
36502;BME280;25393;46.108;3.390;2023-02-03T07:36:04;99733.88;;;5.30;93.89
36502;BME280;25393;46.108;3.390;2023-02-03T07:38:33;99726.25;;;5.26;94.50
36502;BME280;25393;46.108;3.390;2023-02-03T07:40:59;99720.34;;;5.36;92.58
36502;BME280;25393;46.108;3.390;2023-02-03T07:43:26;99722.22;;;5.34;93.20
36502;BME280;25393;46.108;3.390;2023-02-03T07:45:52;99725.78;;;5.33;92.84
36502;BME280;25393;46.108;3.390;2023-02-03T07:48:19;99724.56;;;5.39;92.42
36502;BME280;25393;46.108;3.390;2023-02-03T07:50:47;99723.16;;;5.47;93.93
36502;BME280;25393;46.108;3.390;2023-02-03T07:53:14;99724.44;;;5.54;92.33
36502;BME280;25393;46.108;3.390;2023-02-03T07:55:41;99725.38;;;5.53;92.29
36502;BME280;25393;46.108;3.390;2023-02-03T07:58:07;99716.38;;;5.43;92.22
36502;BME280;25393;46.108;3.390;2023-02-03T08:00:34;99718.59;;;5.64;91.95
36502;BME280;25393;46.108;3.390;2023-02-03T08:03:01;99713.78;;;5.70;91.50
36502;BME280;25393;46.108;3.390;2023-02-03T08:05:27;99703.84;;;5.61;91.44
36502;BME280;25393;46.108;3.390;2023-02-03T08:07:58;99712.31;;;5.66;90.30
36502;BME280;25393;46.108;3.390;2023-02-03T08:10:25;99725.16;;;5.71;90.43
36502;BME280;25393;46.108;3.390;2023-02-03T08:12:55;99710.13;;;5.73;90.01
36502;BME280;25393;46.108;3.390;2023-02-03T08:15:22;99735.63;;;5.85;89.34
36502;BME280;25393;46.108;3.390;2023-02-03T08:17:48;99734.78;;;5.84;88.00
36502;BME280;25393;46.108;3.390;2023-02-03T08:20:15;99734.75;;;5.86;86.88
36502;BME280;25393;46.108;3.390;2023-02-03T08:22:42;99749.75;;;5.98;86.64
36502;BME280;25393;46.108;3.390;2023-02-03T08:25:09;99770.56;;;6.15;86.96
36502;BME280;25393;46.108;3.390;2023-02-03T08:27:36;99772.06;;;6.19;88.45
36502;BME280;25393;46.108;3.390;2023-02-03T08:30:04;99740.59;;;6.03;89.16
36502;BME280;25393;46.108;3.390;2023-02-03T08:32:31;99734.94;;;6.10;88.80
36502;BME280;25393;46.108;3.390;2023-02-03T08:35:04;99740.84;;;6.13;87.34
36502;BME280;25393;46.108;3.390;2023-02-03T08:37:31;99735.00;;;6.22;87.10
36502;BME280;25393;46.108;3.390;2023-02-03T08:39:58;99770.09;;;6.75;84.42
36502;BME280;25393;46.108;3.390;2023-02-03T08:42:25;99741.41;;;6.58;84.37
36502;BME280;25393;46.108;3.390;2023-02-03T08:44:52;99762.47;;;6.58;85.67
36502;BME280;25393;46.108;3.390;2023-02-03T08:47:18;99755.38;;;6.45;85.71
36502;BME280;25393;46.108;3.390;2023-02-03T08:49:45;99771.03;;;6.61;86.07
36502;BME280;25393;46.108;3.390;2023-02-03T08:52:12;99768.19;;;6.64;85.29
36502;BME280;25393;46.108;3.390;2023-02-03T08:54:39;99778.22;;;6.72;84.71
36502;BME280;25393;46.108;3.390;2023-02-03T08:57:06;99748.44;;;6.57;82.93
36502;BME280;25393;46.108;3.390;2023-02-03T08:59:33;99791.09;;;6.89;82.06
36502;BME280;25393;46.108;3.390;2023-02-03T09:02:03;99767.03;;;6.81;81.88
36502;BME280;25393;46.108;3.390;2023-02-03T09:04:30;99787.72;;;6.99;81.77
36502;BME280;25393;46.108;3.390;2023-02-03T09:06:59;99800.81;;;7.14;79.30
36502;BME280;25393;46.108;3.390;2023-02-03T09:09:29;99790.47;;;7.11;80.35
36502;BME280;25393;46.108;3.390;2023-02-03T09:11:59;99799.31;;;7.22;80.26
36502;BME280;25393;46.108;3.390;2023-02-03T09:14:31;99793.19;;;7.22;80.51
36502;BME280;25393;46.108;3.390;2023-02-03T09:17:00;99806.00;;;7.28;79.68
36502;BME280;25393;46.108;3.390;2023-02-03T09:19:26;99804.81;;;7.32;79.18
36502;BME280;25393;46.108;3.390;2023-02-03T09:21:53;99814.75;;;7.41;76.50
36502;BME280;25393;46.108;3.390;2023-02-03T09:24:20;99815.16;;;7.47;76.47
36502;BME280;25393;46.108;3.390;2023-02-03T09:26:47;99812.41;;;7.49;74.27
36502;BME280;25393;46.108;3.390;2023-02-03T09:29:14;99812.41;;;7.49;74.89
36502;BME280;25393;46.108;3.390;2023-02-03T09:31:41;99806.06;;;7.51;75.36
36502;BME280;25393;46.108;3.390;2023-02-03T09:34:08;99788.72;;;7.60;74.27
36502;BME280;25393;46.108;3.390;2023-02-03T09:36:34;99797.81;;;7.69;73.98
36502;BME280;25393;46.108;3.390;2023-02-03T09:39:01;99805.91;;;7.78;73.46
36502;BME280;25393;46.108;3.390;2023-02-03T09:44:10;99801.81;;;8.11;71.55
36502;BME280;25393;46.108;3.390;2023-02-03T09:46:41;99806.25;;;8.10;73.49
36502;BME280;25393;46.108;3.390;2023-02-03T09:49:31;99770.44;;;8.06;74.30
36502;BME280;25393;46.108;3.390;2023-02-03T09:52:04;99768.78;;;8.05;73.58
36502;BME280;25393;46.108;3.390;2023-02-03T09:54:43;99793.94;;;8.34;73.06
36502;BME280;25393;46.108;3.390;2023-02-03T09:57:19;99799.41;;;8.44;72.04
36502;BME280;25393;46.108;3.390;2023-02-03T09:59:47;99772.69;;;8.36;69.88
36502;BME280;25393;46.108;3.390;2023-02-03T10:05:21;99781.53;;;8.47;68.12
36502;BME280;25393;46.108;3.390;2023-02-03T10:07:55;99801.50;;;8.63;66.42
36502;BME280;25393;46.108;3.390;2023-02-03T10:13:22;99806.78;;;8.63;66.28
36502;BME280;25393;46.108;3.390;2023-02-03T10:16:02;99807.59;;;8.76;64.49
36502;BME280;25393;46.108;3.390;2023-02-03T10:18:52;99791.09;;;8.72;63.07
36502;BME280;25393;46.108;3.390;2023-02-03T10:23:50;99809.31;;;8.99;61.74
36502;BME280;25393;46.108;3.390;2023-02-03T10:26:22;99786.25;;;8.90;62.27
36502;BME280;25393;46.108;3.390;2023-02-03T10:28:58;99810.75;;;8.92;62.31
36502;BME280;25393;46.108;3.390;2023-02-03T10:31:32;99820.41;;;9.04;61.76
36502;BME280;25393;46.108;3.390;2023-02-03T10:34:10;99826.78;;;9.13;61.70
36502;BME280;25393;46.108;3.390;2023-02-03T10:42:00;99820.19;;;9.29;60.82
36502;BME280;25393;46.108;3.390;2023-02-03T10:44:48;99803.84;;;9.24;60.64
36502;BME280;25393;46.108;3.390;2023-02-03T10:47:19;99815.91;;;9.28;60.18
36502;BME280;25393;46.108;3.390;2023-02-03T10:49:49;99818.28;;;9.20;59.30
36502;BME280;25393;46.108;3.390;2023-02-03T10:52:32;99819.19;;;9.08;60.97
36502;BME280;25393;46.108;3.390;2023-02-03T10:55:08;99816.34;;;9.11;60.44
36502;BME280;25393;46.108;3.390;2023-02-03T10:57:55;99806.50;;;9.24;60.24
36502;BME280;25393;46.108;3.390;2023-02-03T11:00:27;99803.03;;;9.35;60.02
36502;BME280;25393;46.108;3.390;2023-02-03T11:05:27;99792.91;;;9.51;60.60
36502;BME280;25393;46.108;3.390;2023-02-03T11:07:54;99813.25;;;9.73;59.64
36502;BME280;25393;46.108;3.390;2023-02-03T11:13:16;99821.44;;;9.47;60.89
36502;BME280;25393;46.108;3.390;2023-02-03T11:15:50;99795.56;;;9.29;60.77
36502;BME280;25393;46.108;3.390;2023-02-03T11:21:05;99812.75;;;9.68;58.48
36502;BME280;25393;46.108;3.390;2023-02-03T11:23:32;99796.06;;;9.45;57.88
36502;BME280;25393;46.108;3.390;2023-02-03T11:25:58;99813.22;;;9.39;58.44
36502;BME280;25393;46.108;3.390;2023-02-03T11:28:40;99797.72;;;9.24;60.51
36502;BME280;25393;46.108;3.390;2023-02-03T11:31:23;99765.91;;;8.90;60.90
36502;BME280;25393;46.108;3.390;2023-02-03T11:34:04;99821.91;;;9.30;60.82
36502;BME280;25393;46.108;3.390;2023-02-03T11:36:33;99812.03;;;9.32;61.12
36502;BME280;25393;46.108;3.390;2023-02-03T11:39:19;99806.03;;;9.30;61.70
36502;BME280;25393;46.108;3.390;2023-02-03T11:41:47;99801.56;;;9.31;61.81
36502;BME280;25393;46.108;3.390;2023-02-03T11:46:48;99764.75;;;9.17;61.34
36502;BME280;25393;46.108;3.390;2023-02-03T12:04:06;99799.53;;;9.34;61.04
36502;BME280;25393;46.108;3.390;2023-02-03T12:28:49;99753.28;;;10.16;59.40
36502;BME280;25393;46.108;3.390;2023-02-03T12:32:01;99749.31;;;10.42;57.77
36502;BME280;25393;46.108;3.390;2023-02-03T12:34:33;99744.25;;;10.39;57.11
36502;BME280;25393;46.108;3.390;2023-02-03T12:37:05;99748.34;;;10.43;56.68
36502;BME280;25393;46.108;3.390;2023-02-03T12:39:52;99732.50;;;10.53;56.74
36502;BME280;25393;46.108;3.390;2023-02-03T12:42:39;99718.31;;;10.75;56.93
36502;BME280;25393;46.108;3.390;2023-02-03T12:45:09;99744.66;;;11.48;55.65
36502;BME280;25393;46.108;3.390;2023-02-03T12:47:46;99738.38;;;11.49;54.04
36502;BME280;25393;46.108;3.390;2023-02-03T12:50:26;99706.69;;;11.17;52.28
36502;BME280;25393;46.108;3.390;2023-02-03T12:53:02;99735.69;;;11.09;54.10
36502;BME280;25393;46.108;3.390;2023-02-03T12:55:36;99716.22;;;10.78;54.67
36502;BME280;25393;46.108;3.390;2023-02-03T12:58:19;99735.09;;;11.06;54.83
36502;BME280;25393;46.108;3.390;2023-02-03T13:01:01;99733.69;;;11.92;54.97
36502;BME280;25393;46.108;3.390;2023-02-03T13:06:32;99728.78;;;12.93;50.36
36502;BME280;25393;46.108;3.390;2023-02-03T13:09:04;99722.91;;;12.90;49.69
36502;BME280;25393;46.108;3.390;2023-02-03T13:11:53;99722.22;;;12.69;50.16
36502;BME280;25393;46.108;3.390;2023-02-03T13:14:32;99721.66;;;12.75;50.28
36502;BME280;25393;46.108;3.390;2023-02-03T13:17:19;99695.13;;;13.02;50.08
36502;BME280;25393;46.108;3.390;2023-02-03T13:19:49;99694.31;;;13.11;49.36
36502;BME280;25393;46.108;3.390;2023-02-03T13:22:18;99685.47;;;12.91;49.13
36502;BME280;25393;46.108;3.390;2023-02-03T13:25:16;99696.34;;;12.42;50.21
36502;BME280;25393;46.108;3.390;2023-02-03T13:27:55;99699.09;;;11.83;51.34
36502;BME280;25393;46.108;3.390;2023-02-03T13:36:32;99707.81;;;10.94;55.01
36502;BME280;25393;46.108;3.390;2023-02-03T13:44:43;99691.88;;;12.42;53.07
36502;BME280;25393;46.108;3.390;2023-02-03T13:47:21;99687.78;;;13.23;49.58
36502;BME280;25393;46.108;3.390;2023-02-03T13:50:02;99684.88;;;13.26;49.12
36502;BME280;25393;46.108;3.390;2023-02-03T13:52:36;99691.84;;;12.71;49.60
36502;BME280;25393;46.108;3.390;2023-02-03T13:55:04;99704.88;;;12.45;50.75
36502;BME280;25393;46.108;3.390;2023-02-03T13:57:34;99692.56;;;12.25;50.59
36502;BME280;25393;46.108;3.390;2023-02-03T14:03:16;99707.06;;;13.44;50.34
36502;BME280;25393;46.108;3.390;2023-02-03T14:05:47;99708.66;;;14.10;47.80
36502;BME280;25393;46.108;3.390;2023-02-03T14:16:48;99698.66;;;13.12;47.83
36502;BME280;25393;46.108;3.390;2023-02-03T14:24:34;99692.38;;;14.48;45.21
36502;BME280;25393;46.108;3.390;2023-02-03T14:27:04;99687.56;;;14.69;50.03
36502;BME280;25393;46.108;3.390;2023-02-03T14:29:40;99664.63;;;14.23;48.44
36502;BME280;25393;46.108;3.390;2023-02-03T14:32:11;99687.38;;;13.82;46.01
36502;BME280;25393;46.108;3.390;2023-02-03T14:34:39;99693.22;;;12.85;47.80
36502;BME280;25393;46.108;3.390;2023-02-03T14:43:17;99686.25;;;12.07;49.61
36502;BME280;25393;46.108;3.390;2023-02-03T14:59:56;99669.25;;;13.86;46.70
36502;BME280;25393;46.108;3.390;2023-02-03T15:02:26;99674.22;;;13.98;46.33
36502;BME280;25393;46.108;3.390;2023-02-03T15:07:48;99668.41;;;13.85;45.59
36502;BME280;25393;46.108;3.390;2023-02-03T15:10:22;99668.59;;;13.57;46.72
36502;BME280;25393;46.108;3.390;2023-02-03T15:12:51;99663.34;;;13.10;47.11
36502;BME280;25393;46.108;3.390;2023-02-03T15:17:47;99636.59;;;12.92;47.89
36502;BME280;25393;46.108;3.390;2023-02-03T15:20:24;99655.06;;;13.03;46.18
36502;BME280;25393;46.108;3.390;2023-02-03T15:22:51;99657.06;;;12.92;46.90
36502;BME280;25393;46.108;3.390;2023-02-03T15:25:20;99662.53;;;12.81;46.93
36502;BME280;25393;46.108;3.390;2023-02-03T15:27:47;99666.66;;;12.66;47.48
36502;BME280;25393;46.108;3.390;2023-02-03T15:30:18;99662.44;;;12.63;46.90
36502;BME280;25393;46.108;3.390;2023-02-03T15:33:07;99646.53;;;12.44;47.92
36502;BME280;25393;46.108;3.390;2023-02-03T15:35:39;99626.53;;;12.11;48.46
36502;BME280;25393;46.108;3.390;2023-02-03T15:38:13;99648.78;;;12.20;49.12
36502;BME280;25393;46.108;3.390;2023-02-03T15:40:47;99664.16;;;12.35;49.15
36502;BME280;25393;46.108;3.390;2023-02-03T15:46:16;99669.91;;;12.12;49.40
36502;BME280;25393;46.108;3.390;2023-02-03T15:51:43;99649.25;;;11.56;50.24
36502;BME280;25393;46.108;3.390;2023-02-03T15:59:31;99656.19;;;11.38;51.19
36502;BME280;25393;46.108;3.390;2023-02-03T16:02:26;99664.41;;;11.35;51.24